Latest Weather Observations for Truscott

IDD60801

Issued at 10:01 pm CST Monday 22 December 2014 (issued every 30 minutes, with the page automatically refreshed every 10 minutes)

About weather observations | Map of weather stations | Latest weather observations for NT | Other Formats
Station Details ID: 001020 Name: TRUSCOTT Lat: -14.09 Lon: 126.39 Height: 51.0 m
Data from the previous 72 hours. | See also: Recent months at Truscott
Date/Time
CST
Temp
°C
App
Temp
°C
Dew
Point
Rel
Hum
%
Delta-T
°C
Wind Press
QNH
hPa
Press
MSL
hPa
Rain
since 9 am
mm
Dir
 
Spd
km/h
Gust
km/h
Spd
kts
Gust
kts
22/10:00pm 29.2 34.1 24.3 75 3.4 NNW 6 7 3 4 1007.8 - 0.6
22/09:30pm 29.2 33.7 23.9 73 3.7 N 7 9 4 5 1007.4 - 0.6
22/09:00pm 29.6 34.4 24.2 73 3.8 N 6 9 3 5 1007.1 - 0.6
22/08:30pm 29.7 34.5 24.1 72 3.9 N 6 9 3 5 1006.9 - 0.6
22/08:00pm 29.9 34.5 23.8 70 4.2 NNW 6 7 3 4 1006.7 - 0.6
22/07:30pm 30.1 33.6 23.5 67 4.6 NW 11 15 6 8 1006.2 1005.6 0.6
22/07:00pm 30.7 34.6 23.6 66 4.9 NW 9 15 5 8 1005.7 - 0.6
22/06:30pm 30.9 34.2 23.8 66 4.9 NNW 13 20 7 11 1005.2 - 0.6
22/06:00pm 31.4 33.6 23.2 61 5.7 NNW 17 24 9 13 1005.2 - 0.6
22/05:30pm 31.8 34.4 23.3 60 5.9 NNW 15 22 8 12 1005.5 - 0.6
22/05:00pm 32.6 34.8 23.3 58 6.4 NNW 17 26 9 14 1005.6 - 0.6
22/04:30pm 33.3 35.6 22.7 53 7.3 N 15 24 8 13 1006.1 1005.5 0.6
22/04:00pm 33.3 35.7 23.0 54 7.1 NNW 15 26 8 14 1006.1 - 0.6
22/03:30pm 32.6 35.1 23.8 59 6.1 NNW 17 24 9 13 1006.3 - 0.6
22/03:00pm 33.8 36.0 23.2 54 7.4 NNW 17 26 9 14 1006.8 - 0.6
22/02:30pm 32.9 34.5 21.4 50 7.8 N 15 26 8 14 1006.8 - 0.6
22/02:00pm 33.3 36.2 23.9 58 6.6 NNW 15 24 8 13 1007.2 - 0.6
22/01:30pm 33.0 35.6 23.3 56 6.7 N 15 26 8 14 1007.6 1007.0 0.6
22/01:00pm 32.9 35.9 24.6 61 5.8 NW 17 26 9 14 1008.1 - 0.6
22/12:30pm 32.4 35.8 25.2 66 5.1 NNW 17 22 9 12 1008.5 - 0.6
22/12:00pm 32.2 37.2 26.0 70 4.4 NNW 11 15 6 8 1008.7 - 0.4
22/11:30am 30.4 35.6 25.7 76 3.3 NNE 9 13 5 7 1008.9 - 0.4
22/11:00am 30.7 34.6 24.8 71 4.1 N 13 20 7 11 1009.0 - 0.0
22/10:30am 33.7 38.0 23.7 56 7.0 E 7 11 4 6 1008.9 1008.3 0.0
22/10:00am 32.4 36.4 23.1 58 6.4 NE 7 13 4 7 1008.9 - 0.0
22/09:30am 31.7 36.6 24.6 66 5.0 ENE 7 11 4 6 1008.9 - 0.0
22/09:00am 31.0 36.4 25.4 72 4.0 ENE 7 13 4 7 1008.7 - 0.0
22/08:30am 29.8 34.4 24.7 74 3.6 E 9 13 5 7 1008.6 - 0.0
22/08:00am 28.8 33.8 24.8 79 2.8 ESE 7 9 4 5 1008.1 - 0.0
22/07:30am 27.8 32.6 24.4 82 2.4 ESE 7 9 4 5 1007.8 1007.2 0.0
22/07:00am 26.9 31.8 24.4 86 1.7 ESE 6 7 3 4 1007.2 - 0.0
22/06:30am 26.6 32.6 24.3 87 1.6 CALM 0 0 0 0 1006.8 - 0.0
22/06:00am 26.7 32.8 24.4 87 1.6 CALM 0 0 0 0 1006.5 - 0.0
22/05:30am 27.3 32.9 24.9 87 1.7 SSE 4 7 2 4 1006.5 - 0.0
22/05:00am 27.2 32.9 25.0 88 1.5 ESE 4 6 2 3 1006.3 - 0.0
22/04:30am 27.4 32.8 25.4 89 1.4 ESE 7 11 4 6 1006.4 1005.8 0.0
22/04:00am 27.3 33.6 25.3 89 1.4 ENE 2 7 1 4 1006.2 - 0.0
22/03:30am 27.5 34.1 25.3 88 1.5 CALM 0 2 0 1 1006.0 - 0.0
22/03:00am 27.4 34.1 25.4 89 1.4 CALM 0 0 0 0 1006.1 - 0.0
22/02:30am 27.7 34.5 25.5 88 1.5 CALM 0 0 0 0 1006.3 - 0.0
22/02:00am 27.5 32.6 25.5 89 1.4 SE 9 15 5 8 1006.7 - 0.0
22/01:30am 27.7 34.2 25.1 86 1.8 CALM 0 0 0 0 1006.8 1006.2 0.0
22/01:00am 28.1 34.7 25.3 85 2.0 CALM 0 0 0 0 1007.1 - 0.0
22/12:30am 28.0 33.6 24.8 83 2.2 NNE 4 6 2 3 1007.4 - 0.0
22/12:00am 28.5 35.0 25.1 82 2.4 CALM 0 0 0 0 1007.6 - 0.0
 
Date/Time
CST
Temp
°C
App
Temp
°C
Dew
Point
Rel
Hum
%
Delta-T
°C
Wind Press
QNH
hPa
Press
MSL
hPa
Rain
since 9 am
mm
Dir
 
Spd
km/h
Gust
km/h
Spd
kts
Gust
kts
21/11:30pm 28.7 34.0 24.9 80 2.7 WNW 6 7 3 4 1007.5 - 0.0
21/11:00pm 29.4 34.7 25.2 78 3.0 W 7 9 4 5 1007.3 - 0.0
21/10:30pm 29.9 35.3 25.4 77 3.2 WSW 7 9 4 5 1007.4 1006.8 0.0
21/10:00pm 30.0 35.6 25.7 78 3.1 WSW 7 11 4 6 1007.3 - 0.0
21/09:30pm 30.0 34.7 25.5 77 3.2 W 11 19 6 10 1007.2 - 0.0
21/09:00pm 30.3 34.2 24.9 73 3.8 W 13 17 7 9 1006.8 - 0.0
21/08:30pm 30.8 35.1 24.9 71 4.2 W 11 17 6 9 1006.3 - 0.0
21/08:00pm 31.1 34.9 24.7 68 4.5 WNW 13 17 7 9 1005.7 - 0.0
21/07:30pm 31.7 35.8 24.6 66 5.0 WNW 11 17 6 9 1005.4 1004.8 0.0
21/07:00pm 32.5 36.2 24.5 62 5.6 WNW 13 17 7 9 1004.9 - 0.0
21/06:30pm 32.5 36.2 24.5 62 5.6 WNW 13 17 7 9 1004.5 - 0.0
21/06:00pm 32.8 36.5 24.5 61 5.8 NW 13 17 7 9 1004.5 - 0.0
21/05:30pm 34.1 37.7 24.4 57 6.8 WNW 13 19 7 10 1004.3 - 0.0
21/05:00pm 34.9 38.6 24.5 54 7.3 WNW 13 20 7 11 1004.3 - 0.0
21/04:30pm 34.4 37.1 22.8 51 8.0 NW 13 20 7 11 1004.7 1004.2 0.0
21/04:00pm 34.9 37.5 23.9 53 7.7 W 17 22 9 12 1004.6 - 0.0
21/03:30pm 34.9 38.2 24.5 54 7.3 WNW 15 22 8 12 1005.2 - 0.0
21/03:00pm 34.7 37.1 23.7 52 7.7 W 17 24 9 13 1005.6 - 0.0
21/02:30pm 33.9 35.6 23.0 53 7.5 WNW 19 26 10 14 1005.9 - 0.0
21/02:00pm 34.1 36.8 24.1 56 7.0 WNW 17 26 9 14 1006.6 - 0.0
21/01:30pm 33.8 36.5 24.1 57 6.8 WNW 17 24 9 13 1007.2 1006.6 0.0
21/01:00pm 33.9 36.3 23.6 55 7.2 W 17 22 9 12 1007.6 - 0.0
21/12:30pm 33.7 36.0 23.4 55 7.2 WNW 17 24 9 13 1008.0 - 0.0
21/12:00pm 33.6 36.9 24.5 59 6.4 WNW 15 20 8 11 1008.2 - 0.0
21/11:30am 33.0 36.7 24.5 61 6.0 WNW 13 20 7 11 1008.6 - 0.0
21/11:00am 32.6 36.7 24.6 62 5.6 W 11 20 6 11 1008.9 - 0.0
21/10:30am 31.5 35.5 24.4 66 5.0 W 11 17 6 9 1009.1 1008.5 0.2
21/10:00am 31.1 35.9 24.5 68 4.6 WSW 7 13 4 7 1009.0 - 0.2
21/09:30am 30.7 34.8 24.6 70 4.3 WSW 11 17 6 9 1009.0 - 0.2
21/09:00am 30.3 35.4 24.9 73 3.8 SW 7 11 4 6 1008.9 - 0.2
21/08:30am 29.7 34.8 25.0 76 3.3 W 7 11 4 6 1008.9 - 0.2
21/08:00am 29.2 35.1 24.7 77 3.1 SW 2 7 1 4 1008.6 - 0.2
21/07:30am 27.9 34.0 24.5 82 2.4 CALM 0 0 0 0 1008.2 1007.6 0.2
21/07:00am 25.8 31.6 24.0 90 1.2 CALM 0 0 0 0 1007.8 - 0.2
21/06:30am 25.4 31.1 23.8 91 1.1 CALM 0 0 0 0 1007.7 - 0.2
21/06:00am 25.1 30.7 23.5 91 1.1 CALM 0 7 0 4 1007.3 - 0.2
21/05:30am 26.0 30.2 23.5 86 1.7 SW 7 9 4 5 1007.0 - 0.2
21/05:00am 25.4 30.0 23.8 91 1.1 S 6 7 3 4 1006.8 - 0.2
21/04:30am 25.2 29.8 23.8 92 1.0 S 6 9 3 5 1006.7 1006.1 0.2
21/04:00am 25.0 30.4 23.2 90 1.2 CALM 0 0 0 0 1006.6 - 0.2
21/03:30am 25.2 30.6 23.3 89 1.3 CALM 0 0 0 0 1006.5 - 0.2
21/03:00am 25.1 30.5 23.2 89 1.3 CALM 0 0 0 0 1006.8 - 0.2
21/02:30am 26.0 31.4 23.3 85 1.8 CALM 0 6 0 3 1006.8 - 0.2
21/02:00am 26.7 30.8 23.2 81 2.4 W 7 9 4 5 1006.9 - 0.2
21/01:30am 26.5 31.4 23.0 81 2.4 ESE 2 9 1 5 1007.5 1006.9 0.2
21/01:00am 26.1 31.4 23.0 83 2.1 CALM 0 0 0 0 1007.9 - 0.2
21/12:30am 26.1 31.3 22.8 82 2.2 CALM 0 0 0 0 1008.5 - 0.2
21/12:00am 26.1 30.1 22.8 82 2.2 ESE 6 9 3 5 1008.7 - 0.2
 
Date/Time
CST
Temp
°C
App
Temp
°C
Dew
Point
Rel
Hum
%
Delta-T
°C
Wind Press
QNH
hPa
Press
MSL
hPa
Rain
since 9 am
mm
Dir
 
Spd
km/h
Gust
km/h
Spd
kts
Gust
kts
20/11:30pm 26.3 30.3 22.8 81 2.4 ESE 6 7 3 4 1008.8 - 0.2
20/11:00pm 26.4 30.3 22.9 81 2.4 SE 7 13 4 7 1008.9 - 0.2
20/10:30pm 26.8 30.2 23.3 81 2.4 S 11 15 6 8 1008.9 1008.3 0.2
20/10:00pm 27.2 29.4 21.9 73 3.6 SSW 13 19 7 10 1008.5 - 0.2
20/09:30pm 27.1 29.8 22.1 74 3.4 SW 11 17 6 9 1008.3 - 0.2
20/09:00pm 26.7 30.0 22.5 78 2.8 WSW 9 15 5 8 1007.9 - 0.2
20/08:30pm 26.4 27.9 22.7 80 2.5 W 19 28 10 15 1007.9 - 0.2
20/08:00pm 26.7 28.0 22.3 77 3.0 WSW 19 28 10 15 1007.7 - 0.2
20/07:30pm 26.6 27.6 21.8 75 3.2 WSW 19 26 10 14 1007.4 1006.8 0.2
20/07:00pm 25.0 28.1 22.1 84 1.9 WSW 9 13 5 7 1007.3 - 0.2
20/06:30pm 24.3 24.8 20.8 81 2.3 SSE 19 41 10 22 1007.2 - 0.0
20/06:27pm 25.2 23.9 20.7 76 3.0 S 28 46 15 25 1007.3 - 0.0
20/06:00pm 28.7 29.4 21.5 65 4.8 S 20 28 11 15 1007.1 - 0.0
20/05:30pm 30.5 33.9 23.4 66 4.9 N 11 17 6 9 1005.9 - 0.0
20/05:00pm 30.6 33.3 23.5 66 4.9 N 15 22 8 12 1005.9 - 0.0
20/04:30pm 30.8 33.0 23.2 64 5.2 N 17 26 9 14 1006.0 1005.4 0.0
20/04:00pm 30.7 33.4 23.4 65 5.0 N 15 22 8 12 1006.3 - 0.0
20/03:30pm 31.3 33.7 23.7 64 5.3 N 17 28 9 15 1006.4 - 0.0
20/03:00pm 31.6 34.3 24.2 65 5.2 N 17 32 9 17 1006.7 - 0.0
20/02:30pm 31.0 33.2 23.9 66 4.9 N 19 28 10 15 1007.0 - 0.0
20/02:00pm 32.6 36.0 23.3 58 6.4 N 11 17 6 9 1007.0 - 0.0
20/01:30pm 33.2 36.2 22.6 53 7.3 WNW 11 17 6 9 1007.5 1006.9 0.0
20/01:00pm 33.4 37.6 23.1 54 7.1 NNE 6 13 3 7 1007.9 - 0.0
20/12:30pm 31.9 35.7 23.4 60 5.9 NNE 9 15 5 8 1008.3 - 0.0
20/12:00pm 31.3 34.5 23.7 64 5.3 N 13 22 7 12 1009.1 - 0.0
20/11:30am 31.7 34.0 22.7 59 6.2 N 15 20 8 11 1009.6 - 0.0
20/11:00am 32.2 33.6 22.6 57 6.6 N 19 22 10 12 1009.9 - 0.0
20/10:30am 32.8 36.5 22.6 55 7.0 ENE 7 13 4 7 1010.1 1009.5 0.0
20/10:00am 31.1 34.2 22.1 58 6.1 ENE 9 15 5 8 1010.6 - 0.0
20/09:30am 30.4 33.6 22.3 62 5.5 E 9 15 5 8 1010.7 - 0.0
20/09:00am 29.3 32.2 21.8 64 5.1 E 9 17 5 9 1010.6 - 0.0
20/08:30am 28.3 31.2 21.8 68 4.4 SE 9 13 5 7 1010.4 - 0.0
20/08:00am 27.8 31.1 21.8 70 4.0 SE 7 11 4 6 1010.2 - 0.0
20/07:30am 27.4 30.6 21.7 71 3.8 SE 7 9 4 5 1010.1 1009.5 0.0
20/07:00am 27.0 30.2 21.7 73 3.5 SE 7 9 4 5 1009.5 - 0.0
20/06:30am 27.0 30.2 21.7 73 3.5 SE 7 9 4 5 1009.4 - 0.0
20/06:00am 27.2 30.9 22.2 74 3.4 E 6 9 3 5 1009.2 - 0.0
20/05:30am 27.2 30.9 22.6 76 3.1 ESE 7 11 4 6 1008.1 - 0.0
20/05:00am 27.0 30.6 23.0 79 2.7 SE 9 13 5 7 1008.2 - 0.0
20/04:30am 27.2 31.3 23.2 79 2.7 ESE 7 9 4 5 1008.4 1007.8 0.0
20/04:00am 27.3 32.7 23.3 79 2.7 CALM 0 0 0 0 1008.5 - 0.0
20/03:30am 27.3 31.8 23.7 81 2.5 E 6 7 3 4 1008.7 - 0.0
20/03:00am 27.4 32.3 23.6 80 2.6 ESE 4 9 2 5 1008.8 - 0.0
20/02:30am 27.5 32.0 23.9 81 2.5 E 7 11 4 6 1009.0 - 0.0
20/02:00am 27.5 31.6 23.9 81 2.5 SE 9 13 5 7 1009.3 - 0.0
20/01:30am 27.5 31.6 24.5 84 2.1 SE 11 17 6 9 1009.8 1009.2 0.0
20/01:00am 27.9 32.5 24.7 83 2.2 S 9 13 5 7 1009.9 - 0.0
20/12:30am 28.6 34.6 24.2 77 3.1 CALM 0 0 0 0 1010.2 - 0.0
20/12:00am 28.7 33.8 24.7 79 2.8 WNW 6 7 3 4 1010.4 - 0.0

Other Formats:

Comma delimited format used in spreadsheet applications
http://www.bom.gov.au/fwo/IDD60801/IDD60801.95101.axf

JavaScript Object Notation format (JSON) in row-major order
http://www.bom.gov.au/fwo/IDD60801/IDD60801.95101.json